createdAt,value
2018-07-06T00:00:02.789Z,14.2
2018-07-06T00:15:03.085Z,14.2
2018-07-06T00:30:02.523Z,14.2
2018-07-06T00:45:02.866Z,14.1
2018-07-06T01:00:03.208Z,14.1
2018-07-06T01:15:02.491Z,14.1
2018-07-06T01:30:02.899Z,14.1
2018-07-06T01:45:02.289Z,14.1
2018-07-06T02:00:02.594Z,14.1
2018-07-06T02:15:02.947Z,14.1
2018-07-06T02:30:02.426Z,14.1
2018-07-06T02:45:02.764Z,14
2018-07-06T03:00:03.122Z,14
2018-07-06T03:15:02.471Z,13.9
2018-07-06T03:30:02.885Z,13.9
2018-07-06T03:45:03.243Z,13.9
2018-07-06T04:00:02.665Z,13.9
2018-07-06T04:15:02.985Z,13.9
2018-07-06T04:30:02.411Z,13.9
2018-07-06T04:45:02.747Z,13.8
2018-07-06T05:00:03.095Z,13.8
2018-07-06T05:15:02.393Z,13.8
2018-07-06T05:30:02.839Z,13.7
2018-07-06T05:45:03.166Z,13.7
2018-07-06T06:00:02.541Z,13.7
2018-07-06T06:15:02.868Z,13.6
2018-07-06T06:30:02.381Z,13.6
2018-07-06T06:45:02.665Z,13.6
2018-07-06T07:00:02.966Z,13.6
2018-07-06T07:15:02.334Z,13.6
2018-07-06T07:30:02.826Z,13.6
2018-07-06T07:45:03.195Z,13.5
2018-07-06T08:00:02.498Z,13.6
2018-07-06T08:15:02.782Z,13.6
2018-07-06T08:30:03.242Z,13.6
2018-07-06T08:45:02.635Z,13.6
2018-07-06T09:00:03.100Z,13.6
2018-07-06T09:15:02.481Z,13.6
2018-07-06T09:30:02.882Z,13.6
2018-07-06T09:45:03.213Z,13.6
2018-07-06T10:00:02.881Z,13.6
2018-07-06T10:15:03.226Z,13.6
2018-07-06T10:30:02.671Z,13.6
2018-07-06T10:45:02.964Z,13.7
2018-07-06T11:00:02.309Z,13.7
2018-07-06T11:15:02.595Z,13.7
2018-07-06T11:30:02.986Z,13.7
2018-07-06T11:45:02.445Z,13.7
2018-07-06T12:00:02.799Z,13.6
2018-07-06T12:15:03.188Z,13.6
2018-07-06T12:30:02.595Z,13.6
2018-07-06T12:45:02.923Z,13.6
2018-07-06T13:00:03.303Z,13.5
2018-07-06T13:15:02.667Z,13.4
2018-07-06T13:30:03.095Z,13.4
2018-07-06T13:45:02.397Z,13.4
2018-07-06T14:00:02.830Z,13.3
2018-07-06T14:15:03.194Z,13.2
2018-07-06T14:30:02.600Z,13.2
2018-07-06T14:45:02.955Z,13.2
2018-07-06T15:00:02.289Z,13.2
2018-07-06T15:15:02.659Z,13.2
2018-07-06T15:30:03.048Z,13.2
2018-07-06T15:45:02.390Z,13.1
2018-07-06T16:00:02.692Z,13.1
2018-07-06T16:15:02.986Z,13.1
2018-07-06T16:30:02.404Z,13.1
2018-07-06T16:45:02.775Z,13.1
2018-07-06T17:00:03.096Z,13.1
2018-07-06T17:15:02.462Z,13.1
2018-07-06T17:30:02.907Z,13
2018-07-06T17:45:03.232Z,13
2018-07-06T18:00:02.562Z,12.9
2018-07-06T18:15:02.867Z,12.9
2018-07-06T18:30:02.321Z,12.9
2018-07-06T18:45:02.641Z,12.9
2018-07-06T19:00:02.977Z,12.9
2018-07-06T19:15:02.259Z,12.9
2018-07-06T19:30:02.672Z,12.9
2018-07-06T19:45:02.984Z,12.8
2018-07-06T20:00:02.290Z,12.8
2018-07-06T20:15:02.584Z,12.8
2018-07-06T20:30:02.975Z,12.8
2018-07-06T20:45:02.282Z,12.8
2018-07-06T21:00:02.612Z,12.8
2018-07-06T21:15:02.971Z,12.8
2018-07-06T21:30:02.419Z,12.8
2018-07-06T21:45:02.758Z,12.8
2018-07-06T22:00:03.099Z,12.8
2018-07-06T22:15:02.464Z,12.8
2018-07-06T22:30:02.865Z,12.7
2018-07-06T22:45:03.204Z,12.7
2018-07-06T23:00:02.552Z,12.7
2018-07-06T23:15:02.884Z,12.7
2018-07-06T23:30:02.263Z,12.7
2018-07-06T23:45:02.583Z,12.7
